sensor_id;sensor_type;location;lat;lon;timestamp;P1;durP1;ratioP1;P2;durP2;ratioP2
68250;SDS011;55066;51.560;4.642;2023-04-01T00:00:29;6.78;;;2.25;;
68250;SDS011;55066;51.560;4.642;2023-04-01T00:02:55;7.43;;;1.83;;
68250;SDS011;55066;51.560;4.642;2023-04-01T00:05:21;7.25;;;1.92;;
68250;SDS011;55066;51.560;4.642;2023-04-01T00:07:49;7.25;;;1.90;;
68250;SDS011;55066;51.560;4.642;2023-04-01T00:10:15;6.68;;;2.00;;
68250;SDS011;55066;51.560;4.642;2023-04-01T00:12:41;6.82;;;1.88;;
68250;SDS011;55066;51.560;4.642;2023-04-01T00:15:08;6.20;;;2.15;;
68250;SDS011;55066;51.560;4.642;2023-04-01T00:17:35;7.50;;;2.20;;
68250;SDS011;55066;51.560;4.642;2023-04-01T00:20:00;8.20;;;2.40;;
68250;SDS011;55066;51.560;4.642;2023-04-01T00:22:27;8.70;;;2.10;;
68250;SDS011;55066;51.560;4.642;2023-04-01T00:24:53;8.77;;;2.30;;
68250;SDS011;55066;51.560;4.642;2023-04-01T00:27:19;8.07;;;2.07;;
68250;SDS011;55066;51.560;4.642;2023-04-01T00:29:46;7.47;;;2.00;;
68250;SDS011;55066;51.560;4.642;2023-04-01T00:32:14;8.32;;;1.80;;
68250;SDS011;55066;51.560;4.642;2023-04-01T00:34:40;3.80;;;1.57;;
68250;SDS011;55066;51.560;4.642;2023-04-01T00:37:06;6.22;;;1.73;;
68250;SDS011;55066;51.560;4.642;2023-04-01T00:39:33;5.50;;;1.77;;
68250;SDS011;55066;51.560;4.642;2023-04-01T00:41:59;5.72;;;1.60;;
68250;SDS011;55066;51.560;4.642;2023-04-01T00:44:27;5.80;;;1.70;;
68250;SDS011;55066;51.560;4.642;2023-04-01T00:46:55;4.53;;;1.40;;
68250;SDS011;55066;51.560;4.642;2023-04-01T00:49:31;4.30;;;1.50;;
68250;SDS011;55066;51.560;4.642;2023-04-01T00:52:03;6.45;;;1.40;;
68250;SDS011;55066;51.560;4.642;2023-04-01T00:54:31;7.13;;;1.70;;
68250;SDS011;55066;51.560;4.642;2023-04-01T00:57:03;6.10;;;1.35;;
68250;SDS011;55066;51.560;4.642;2023-04-01T00:59:33;6.30;;;1.50;;
68250;SDS011;55066;51.560;4.642;2023-04-01T01:02:04;8.13;;;1.42;;
68250;SDS011;55066;51.560;4.642;2023-04-01T01:04:33;5.30;;;1.60;;
68250;SDS011;55066;51.560;4.642;2023-04-01T01:17:22;4.55;;;1.77;;
68250;SDS011;55066;51.560;4.642;2023-04-01T01:20:04;9.38;;;2.40;;
68250;SDS011;55066;51.560;4.642;2023-04-01T01:25:31;7.17;;;1.90;;
68250;SDS011;55066;51.560;4.642;2023-04-01T01:31:10;13.45;;;2.15;;
68250;SDS011;55066;51.560;4.642;2023-04-01T01:33:45;6.97;;;2.10;;
68250;SDS011;55066;51.560;4.642;2023-04-01T01:36:18;11.00;;;2.10;;
68250;SDS011;55066;51.560;4.642;2023-04-01T01:38:46;7.47;;;2.30;;
68250;SDS011;55066;51.560;4.642;2023-04-01T01:41:13;6.90;;;1.85;;
68250;SDS011;55066;51.560;4.642;2023-04-01T01:43:43;6.22;;;1.90;;
68250;SDS011;55066;51.560;4.642;2023-04-01T01:46:14;5.78;;;1.80;;
68250;SDS011;55066;51.560;4.642;2023-04-01T01:48:44;7.30;;;1.67;;
68250;SDS011;55066;51.560;4.642;2023-04-01T01:51:11;6.67;;;1.60;;
68250;SDS011;55066;51.560;4.642;2023-04-01T01:53:37;6.07;;;1.90;;
68250;SDS011;55066;51.560;4.642;2023-04-01T01:56:03;9.85;;;1.80;;
68250;SDS011;55066;51.560;4.642;2023-04-01T01:58:38;5.80;;;1.42;;
68250;SDS011;55066;51.560;4.642;2023-04-01T02:01:14;5.32;;;1.77;;
68250;SDS011;55066;51.560;4.642;2023-04-01T02:03:44;8.70;;;2.05;;
68250;SDS011;55066;51.560;4.642;2023-04-01T02:06:11;6.72;;;1.92;;
68250;SDS011;55066;51.560;4.642;2023-04-01T02:08:48;6.47;;;1.95;;
68250;SDS011;55066;51.560;4.642;2023-04-01T02:11:18;4.70;;;1.90;;
68250;SDS011;55066;51.560;4.642;2023-04-01T02:13:54;7.90;;;2.28;;
68250;SDS011;55066;51.560;4.642;2023-04-01T02:16:28;5.53;;;2.00;;
68250;SDS011;55066;51.560;4.642;2023-04-01T02:18:59;6.25;;;2.20;;
68250;SDS011;55066;51.560;4.642;2023-04-01T02:21:30;7.45;;;2.55;;
68250;SDS011;55066;51.560;4.642;2023-04-01T02:23:57;4.88;;;2.00;;
68250;SDS011;55066;51.560;4.642;2023-04-01T02:26:25;4.88;;;2.20;;
68250;SDS011;55066;51.560;4.642;2023-04-01T02:28:52;4.63;;;2.00;;
68250;SDS011;55066;51.560;4.642;2023-04-01T02:31:19;7.15;;;2.53;;
68250;SDS011;55066;51.560;4.642;2023-04-01T02:33:45;9.32;;;2.88;;
68250;SDS011;55066;51.560;4.642;2023-04-01T02:36:12;8.07;;;2.70;;
68250;SDS011;55066;51.560;4.642;2023-04-01T02:38:39;8.95;;;3.05;;
68250;SDS011;55066;51.560;4.642;2023-04-01T02:41:06;6.55;;;2.47;;
68250;SDS011;55066;51.560;4.642;2023-04-01T02:43:32;8.63;;;2.90;;
68250;SDS011;55066;51.560;4.642;2023-04-01T02:45:57;5.80;;;2.50;;
68250;SDS011;55066;51.560;4.642;2023-04-01T02:48:23;6.50;;;2.73;;
68250;SDS011;55066;51.560;4.642;2023-04-01T02:50:48;9.40;;;2.80;;
68250;SDS011;55066;51.560;4.642;2023-04-01T02:53:14;7.40;;;2.47;;
68250;SDS011;55066;51.560;4.642;2023-04-01T02:55:40;7.85;;;3.35;;
68250;SDS011;55066;51.560;4.642;2023-04-01T02:58:06;10.50;;;3.85;;
68250;SDS011;55066;51.560;4.642;2023-04-01T03:00:31;7.50;;;3.00;;
68250;SDS011;55066;51.560;4.642;2023-04-01T03:02:57;11.75;;;4.10;;
68250;SDS011;55066;51.560;4.642;2023-04-01T03:05:22;10.57;;;3.73;;
68250;SDS011;55066;51.560;4.642;2023-04-01T03:07:48;9.63;;;4.00;;
68250;SDS011;55066;51.560;4.642;2023-04-01T03:10:14;12.13;;;4.40;;
68250;SDS011;55066;51.560;4.642;2023-04-01T03:12:39;10.80;;;3.83;;
68250;SDS011;55066;51.560;4.642;2023-04-01T03:15:05;13.45;;;3.80;;
68250;SDS011;55066;51.560;4.642;2023-04-01T03:17:31;13.35;;;4.20;;
68250;SDS011;55066;51.560;4.642;2023-04-01T03:19:57;12.45;;;4.40;;
68250;SDS011;55066;51.560;4.642;2023-04-01T03:22:23;7.82;;;3.80;;
68250;SDS011;55066;51.560;4.642;2023-04-01T03:24:48;9.50;;;3.43;;
68250;SDS011;55066;51.560;4.642;2023-04-01T03:27:14;7.87;;;2.70;;
68250;SDS011;55066;51.560;4.642;2023-04-01T03:29:39;5.93;;;1.93;;
68250;SDS011;55066;51.560;4.642;2023-04-01T03:32:05;15.10;;;3.75;;
68250;SDS011;55066;51.560;4.642;2023-04-01T03:34:31;7.80;;;2.75;;
68250;SDS011;55066;51.560;4.642;2023-04-01T03:36:57;9.07;;;2.90;;
68250;SDS011;55066;51.560;4.642;2023-04-01T03:39:22;8.80;;;2.83;;
68250;SDS011;55066;51.560;4.642;2023-04-01T03:41:49;8.35;;;2.90;;
68250;SDS011;55066;51.560;4.642;2023-04-01T03:44:14;5.93;;;2.10;;
68250;SDS011;55066;51.560;4.642;2023-04-01T03:46:40;6.07;;;2.63;;
68250;SDS011;55066;51.560;4.642;2023-04-01T03:49:06;5.63;;;2.03;;
68250;SDS011;55066;51.560;4.642;2023-04-01T03:51:37;4.90;;;1.98;;
68250;SDS011;55066;51.560;4.642;2023-04-01T03:54:03;7.10;;;1.77;;
68250;SDS011;55066;51.560;4.642;2023-04-01T03:56:30;4.22;;;1.80;;
68250;SDS011;55066;51.560;4.642;2023-04-01T03:58:56;4.73;;;1.90;;
68250;SDS011;55066;51.560;4.642;2023-04-01T04:01:21;4.80;;;1.80;;
68250;SDS011;55066;51.560;4.642;2023-04-01T04:03:50;6.22;;;1.80;;
68250;SDS011;55066;51.560;4.642;2023-04-01T04:06:17;6.47;;;1.38;;
68250;SDS011;55066;51.560;4.642;2023-04-01T04:08:44;4.25;;;1.83;;
68250;SDS011;55066;51.560;4.642;2023-04-01T04:11:10;5.28;;;1.65;;
68250;SDS011;55066;51.560;4.642;2023-04-01T04:13:40;4.50;;;1.42;;
68250;SDS011;55066;51.560;4.642;2023-04-01T04:16:06;3.60;;;1.50;;
68250;SDS011;55066;51.560;4.642;2023-04-01T04:18:36;4.70;;;1.55;;
68250;SDS011;55066;51.560;4.642;2023-04-01T04:21:03;4.70;;;1.80;;
68250;SDS011;55066;51.560;4.642;2023-04-01T04:23:29;4.07;;;1.60;;
68250;SDS011;55066;51.560;4.642;2023-04-01T04:26:06;4.32;;;1.70;;
68250;SDS011;55066;51.560;4.642;2023-04-01T04:28:33;5.22;;;2.10;;
68250;SDS011;55066;51.560;4.642;2023-04-01T04:30:59;5.40;;;2.00;;
68250;SDS011;55066;51.560;4.642;2023-04-01T04:33:25;5.60;;;2.40;;
68250;SDS011;55066;51.560;4.642;2023-04-01T04:35:54;4.05;;;1.88;;
68250;SDS011;55066;51.560;4.642;2023-04-01T04:38:21;5.85;;;2.28;;
68250;SDS011;55066;51.560;4.642;2023-04-01T04:40:47;6.13;;;2.40;;
68250;SDS011;55066;51.560;4.642;2023-04-01T04:43:13;4.53;;;1.83;;
68250;SDS011;55066;51.560;4.642;2023-04-01T04:45:40;4.47;;;2.00;;
68250;SDS011;55066;51.560;4.642;2023-04-01T04:48:10;6.32;;;2.58;;
68250;SDS011;55066;51.560;4.642;2023-04-01T04:50:41;5.13;;;1.90;;
68250;SDS011;55066;51.560;4.642;2023-04-01T04:53:12;7.40;;;2.70;;
68250;SDS011;55066;51.560;4.642;2023-04-01T04:55:42;7.68;;;2.88;;
68250;SDS011;55066;51.560;4.642;2023-04-01T04:58:32;6.47;;;2.33;;
68250;SDS011;55066;51.560;4.642;2023-04-01T05:00:58;8.50;;;2.65;;
68250;SDS011;55066;51.560;4.642;2023-04-01T05:03:28;5.27;;;2.40;;
68250;SDS011;55066;51.560;4.642;2023-04-01T05:05:54;6.65;;;2.67;;
68250;SDS011;55066;51.560;4.642;2023-04-01T05:08:19;6.43;;;2.80;;
68250;SDS011;55066;51.560;4.642;2023-04-01T05:10:46;8.60;;;3.30;;
68250;SDS011;55066;51.560;4.642;2023-04-01T05:13:12;8.73;;;2.90;;
68250;SDS011;55066;51.560;4.642;2023-04-01T05:15:38;7.90;;;2.33;;
68250;SDS011;55066;51.560;4.642;2023-04-01T05:18:04;6.50;;;2.70;;
68250;SDS011;55066;51.560;4.642;2023-04-01T05:20:31;6.45;;;2.88;;
68250;SDS011;55066;51.560;4.642;2023-04-01T05:22:57;7.30;;;3.10;;
68250;SDS011;55066;51.560;4.642;2023-04-01T05:25:23;6.60;;;3.00;;
68250;SDS011;55066;51.560;4.642;2023-04-01T05:27:49;9.63;;;2.97;;
68250;SDS011;55066;51.560;4.642;2023-04-01T05:30:14;7.45;;;3.20;;
68250;SDS011;55066;51.560;4.642;2023-04-01T05:33:00;7.35;;;2.83;;
68250;SDS011;55066;51.560;4.642;2023-04-01T05:35:26;8.02;;;2.58;;
68250;SDS011;55066;51.560;4.642;2023-04-01T05:37:52;7.63;;;2.95;;
68250;SDS011;55066;51.560;4.642;2023-04-01T05:40:17;6.82;;;3.08;;
68250;SDS011;55066;51.560;4.642;2023-04-01T05:42:43;7.10;;;3.28;;
68250;SDS011;55066;51.560;4.642;2023-04-01T05:45:09;10.25;;;4.30;;
68250;SDS011;55066;51.560;4.642;2023-04-01T05:48:06;8.82;;;3.95;;
68250;SDS011;55066;51.560;4.642;2023-04-01T05:50:39;10.88;;;4.70;;
68250;SDS011;55066;51.560;4.642;2023-04-01T05:53:05;11.02;;;5.05;;
68250;SDS011;55066;51.560;4.642;2023-04-01T05:55:30;12.07;;;4.67;;
68250;SDS011;55066;51.560;4.642;2023-04-01T05:57:56;11.77;;;4.82;;
68250;SDS011;55066;51.560;4.642;2023-04-01T06:00:22;11.37;;;4.73;;
68250;SDS011;55066;51.560;4.642;2023-04-01T06:02:48;12.60;;;5.22;;
68250;SDS011;55066;51.560;4.642;2023-04-01T06:05:15;9.77;;;3.63;;
68250;SDS011;55066;51.560;4.642;2023-04-01T06:07:44;9.25;;;4.22;;
68250;SDS011;55066;51.560;4.642;2023-04-01T06:10:20;10.00;;;4.53;;
68250;SDS011;55066;51.560;4.642;2023-04-01T06:15:29;14.95;;;5.60;;
68250;SDS011;55066;51.560;4.642;2023-04-01T06:21:01;15.48;;;6.65;;
68250;SDS011;55066;51.560;4.642;2023-04-01T06:26:37;24.67;;;7.72;;
68250;SDS011;55066;51.560;4.642;2023-04-01T06:31:47;19.85;;;7.03;;
68250;SDS011;55066;51.560;4.642;2023-04-01T06:40:05;28.80;;;7.75;;
68250;SDS011;55066;51.560;4.642;2023-04-01T06:42:55;24.58;;;8.63;;
68250;SDS011;55066;51.560;4.642;2023-04-01T06:52:29;22.10;;;7.75;;
68250;SDS011;55066;51.560;4.642;2023-04-01T06:58:47;21.90;;;7.35;;
68250;SDS011;55066;51.560;4.642;2023-04-01T07:01:18;17.90;;;6.15;;
68250;SDS011;55066;51.560;4.642;2023-04-01T07:03:53;20.00;;;6.55;;
68250;SDS011;55066;51.560;4.642;2023-04-01T07:06:27;23.65;;;7.65;;
68250;SDS011;55066;51.560;4.642;2023-04-01T07:08:58;24.88;;;8.80;;
68250;SDS011;55066;51.560;4.642;2023-04-01T07:11:38;17.30;;;5.93;;
68250;SDS011;55066;51.560;4.642;2023-04-01T07:17:00;22.83;;;7.78;;
68250;SDS011;55066;51.560;4.642;2023-04-01T07:20:35;17.80;;;7.05;;
68250;SDS011;55066;51.560;4.642;2023-04-01T07:22:51;19.65;;;7.88;;
68250;SDS011;55066;51.560;4.642;2023-04-01T07:25:31;21.05;;;8.55;;
68250;SDS011;55066;51.560;4.642;2023-04-01T07:28:20;23.50;;;9.10;;
68250;SDS011;55066;51.560;4.642;2023-04-01T07:33:33;17.23;;;5.55;;
68250;SDS011;55066;51.560;4.642;2023-04-01T07:49:03;18.48;;;6.50;;
68250;SDS011;55066;51.560;4.642;2023-04-01T07:51:45;15.15;;;6.75;;
68250;SDS011;55066;51.560;4.642;2023-04-01T07:54:18;17.88;;;7.72;;
68250;SDS011;55066;51.560;4.642;2023-04-01T07:57:05;18.27;;;7.20;;
68250;SDS011;55066;51.560;4.642;2023-04-01T08:08:27;15.85;;;6.32;;
68250;SDS011;55066;51.560;4.642;2023-04-01T08:11:49;14.55;;;5.90;;
68250;SDS011;55066;51.560;4.642;2023-04-01T08:15:10;17.90;;;7.28;;
68250;SDS011;55066;51.560;4.642;2023-04-01T08:18:06;15.30;;;6.53;;
68250;SDS011;55066;51.560;4.642;2023-04-01T08:20:53;19.92;;;7.28;;
68250;SDS011;55066;51.560;4.642;2023-04-01T08:23:26;17.65;;;7.43;;
68250;SDS011;55066;51.560;4.642;2023-04-01T08:26:06;18.27;;;7.57;;
68250;SDS011;55066;51.560;4.642;2023-04-01T08:31:33;15.65;;;5.80;;
68250;SDS011;55066;51.560;4.642;2023-04-01T08:34:04;21.27;;;6.55;;
68250;SDS011;55066;51.560;4.642;2023-04-01T08:36:38;15.85;;;6.05;;
68250;SDS011;55066;51.560;4.642;2023-04-01T08:39:15;16.33;;;6.55;;
68250;SDS011;55066;51.560;4.642;2023-04-01T08:42:25;17.65;;;6.85;;
68250;SDS011;55066;51.560;4.642;2023-04-01T08:54:19;12.10;;;5.15;;
68250;SDS011;55066;51.560;4.642;2023-04-01T09:06:29;14.40;;;5.80;;
68250;SDS011;55066;51.560;4.642;2023-04-01T09:12:28;15.07;;;6.82;;
68250;SDS011;55066;51.560;4.642;2023-04-01T09:29:18;10.82;;;4.10;;
68250;SDS011;55066;51.560;4.642;2023-04-01T09:40:54;11.20;;;4.05;;
68250;SDS011;55066;51.560;4.642;2023-04-01T09:46:51;8.70;;;3.47;;
68250;SDS011;55066;51.560;4.642;2023-04-01T09:50:19;11.32;;;4.15;;
68250;SDS011;55066;51.560;4.642;2023-04-01T09:52:51;9.32;;;4.15;;
68250;SDS011;55066;51.560;4.642;2023-04-01T10:01:17;6.78;;;3.28;;
68250;SDS011;55066;51.560;4.642;2023-04-01T10:13:08;7.38;;;3.47;;
68250;SDS011;55066;51.560;4.642;2023-04-01T10:16:19;9.82;;;3.80;;
68250;SDS011;55066;51.560;4.642;2023-04-01T10:27:16;8.63;;;3.13;;
68250;SDS011;55066;51.560;4.642;2023-04-01T10:33:34;5.95;;;2.25;;
68250;SDS011;55066;51.560;4.642;2023-04-01T10:36:23;5.35;;;2.17;;
68250;SDS011;55066;51.560;4.642;2023-04-01T11:04:39;8.25;;;3.63;;
68250;SDS011;55066;51.560;4.642;2023-04-01T11:07:57;7.50;;;3.30;;
68250;SDS011;55066;51.560;4.642;2023-04-01T11:37:15;12.88;;;4.70;;
68250;SDS011;55066;51.560;4.642;2023-04-01T11:40:45;15.57;;;5.30;;
68250;SDS011;55066;51.560;4.642;2023-04-01T11:43:38;15.18;;;5.25;;
68250;SDS011;55066;51.560;4.642;2023-04-01T11:47:00;12.93;;;5.30;;
68250;SDS011;55066;51.560;4.642;2023-04-01T11:49:31;17.85;;;5.97;;
68250;SDS011;55066;51.560;4.642;2023-04-01T11:52:31;19.13;;;5.65;;
68250;SDS011;55066;51.560;4.642;2023-04-01T11:55:28;18.48;;;6.20;;
68250;SDS011;55066;51.560;4.642;2023-04-01T12:12:32;15.75;;;5.40;;
68250;SDS011;55066;51.560;4.642;2023-04-01T12:22:57;8.20;;;3.92;;
68250;SDS011;55066;51.560;4.642;2023-04-01T12:25:38;11.93;;;4.40;;
68250;SDS011;55066;51.560;4.642;2023-04-01T12:33:52;6.60;;;3.15;;
68250;SDS011;55066;51.560;4.642;2023-04-01T12:36:44;8.00;;;3.40;;
68250;SDS011;55066;51.560;4.642;2023-04-01T12:53:37;7.15;;;3.47;;
68250;SDS011;55066;51.560;4.642;2023-04-01T12:59:14;9.73;;;4.20;;
68250;SDS011;55066;51.560;4.642;2023-04-01T13:04:53;8.30;;;3.80;;
68250;SDS011;55066;51.560;4.642;2023-04-01T13:13:23;12.98;;;4.80;;
68250;SDS011;55066;51.560;4.642;2023-04-01T13:19:05;12.27;;;4.45;;
68250;SDS011;55066;51.560;4.642;2023-04-01T13:21:39;10.40;;;4.50;;
68250;SDS011;55066;51.560;4.642;2023-04-01T13:27:21;10.02;;;3.60;;
68250;SDS011;55066;51.560;4.642;2023-04-01T13:35:26;9.52;;;3.67;;
68250;SDS011;55066;51.560;4.642;2023-04-01T13:40:51;10.27;;;4.25;;
68250;SDS011;55066;51.560;4.642;2023-04-01T13:57:27;7.57;;;3.05;;
68250;SDS011;55066;51.560;4.642;2023-04-01T14:22:38;6.45;;;3.00;;
68250;SDS011;55066;51.560;4.642;2023-04-01T14:25:26;6.57;;;2.65;;
68250;SDS011;55066;51.560;4.642;2023-04-01T14:31:00;7.95;;;2.70;;
68250;SDS011;55066;51.560;4.642;2023-04-01T14:33:43;6.40;;;2.80;;
68250;SDS011;55066;51.560;4.642;2023-04-01T14:36:28;9.48;;;2.65;;
68250;SDS011;55066;51.560;4.642;2023-04-01T14:50:40;5.60;;;2.33;;
68250;SDS011;55066;51.560;4.642;2023-04-01T14:53:13;5.18;;;2.20;;
68250;SDS011;55066;51.560;4.642;2023-04-01T14:55:55;6.07;;;2.58;;
68250;SDS011;55066;51.560;4.642;2023-04-01T14:58:46;7.45;;;3.40;;
68250;SDS011;55066;51.560;4.642;2023-04-01T15:01:24;6.75;;;2.97;;
68250;SDS011;55066;51.560;4.642;2023-04-01T15:24:22;15.25;;;5.80;;
68250;SDS011;55066;51.560;4.642;2023-04-01T15:34:48;20.83;;;7.05;;
68250;SDS011;55066;51.560;4.642;2023-04-01T15:49:57;13.55;;;5.70;;
68250;SDS011;55066;51.560;4.642;2023-04-01T15:52:49;17.17;;;5.50;;
68250;SDS011;55066;51.560;4.642;2023-04-01T15:58:37;12.97;;;5.57;;
68250;SDS011;55066;51.560;4.642;2023-04-01T16:09:21;18.25;;;5.50;;
68250;SDS011;55066;51.560;4.642;2023-04-01T16:12:15;11.30;;;5.10;;
68250;SDS011;55066;51.560;4.642;2023-04-01T16:28:19;17.15;;;6.30;;
68250;SDS011;55066;51.560;4.642;2023-04-01T16:31:05;14.93;;;5.82;;
68250;SDS011;55066;51.560;4.642;2023-04-01T16:39:43;17.07;;;6.77;;
68250;SDS011;55066;51.560;4.642;2023-04-01T16:45:41;17.48;;;6.40;;
68250;SDS011;55066;51.560;4.642;2023-04-01T16:51:14;17.00;;;5.95;;
68250;SDS011;55066;51.560;4.642;2023-04-01T16:53:47;21.43;;;6.77;;
68250;SDS011;55066;51.560;4.642;2023-04-01T16:56:24;19.70;;;6.75;;
68250;SDS011;55066;51.560;4.642;2023-04-01T17:01:52;17.77;;;6.72;;
68250;SDS011;55066;51.560;4.642;2023-04-01T17:04:23;15.75;;;5.88;;
68250;SDS011;55066;51.560;4.642;2023-04-01T17:06:53;17.53;;;5.63;;
68250;SDS011;55066;51.560;4.642;2023-04-01T17:15:51;15.82;;;6.20;;
68250;SDS011;55066;51.560;4.642;2023-04-01T17:18:58;19.30;;;6.40;;
68250;SDS011;55066;51.560;4.642;2023-04-01T17:21:56;14.67;;;6.20;;
68250;SDS011;55066;51.560;4.642;2023-04-01T17:30:27;14.63;;;5.78;;
68250;SDS011;55066;51.560;4.642;2023-04-01T17:47:25;11.95;;;4.80;;
68250;SDS011;55066;51.560;4.642;2023-04-01T17:55:53;7.60;;;3.50;;
68250;SDS011;55066;51.560;4.642;2023-04-01T17:58:46;8.68;;;3.15;;
68250;SDS011;55066;51.560;4.642;2023-04-01T18:04:02;8.17;;;3.50;;
68250;SDS011;55066;51.560;4.642;2023-04-01T18:09:41;7.53;;;3.40;;
68250;SDS011;55066;51.560;4.642;2023-04-01T18:15:21;8.40;;;3.78;;
68250;SDS011;55066;51.560;4.642;2023-04-01T18:18:40;8.10;;;3.80;;
68250;SDS011;55066;51.560;4.642;2023-04-01T18:23:59;9.57;;;4.07;;
68250;SDS011;55066;51.560;4.642;2023-04-01T18:26:12;9.68;;;4.32;;
68250;SDS011;55066;51.560;4.642;2023-04-01T18:28:53;8.70;;;3.95;;
68250;SDS011;55066;51.560;4.642;2023-04-01T18:31:32;8.23;;;3.43;;
68250;SDS011;55066;51.560;4.642;2023-04-01T18:34:02;8.95;;;4.05;;
68250;SDS011;55066;51.560;4.642;2023-04-01T18:36:44;8.07;;;3.75;;
68250;SDS011;55066;51.560;4.642;2023-04-01T18:47:02;9.15;;;4.05;;
68250;SDS011;55066;51.560;4.642;2023-04-01T18:52:22;5.68;;;3.10;;
68250;SDS011;55066;51.560;4.642;2023-04-01T18:57:27;7.57;;;3.80;;
68250;SDS011;55066;51.560;4.642;2023-04-01T19:00:20;6.22;;;3.17;;
68250;SDS011;55066;51.560;4.642;2023-04-01T19:03:07;5.57;;;2.60;;
68250;SDS011;55066;51.560;4.642;2023-04-01T19:05:41;8.23;;;3.13;;
68250;SDS011;55066;51.560;4.642;2023-04-01T19:16:25;9.30;;;2.80;;
68250;SDS011;55066;51.560;4.642;2023-04-01T19:19:51;7.68;;;2.88;;
68250;SDS011;55066;51.560;4.642;2023-04-01T19:25:29;6.03;;;3.08;;
68250;SDS011;55066;51.560;4.642;2023-04-01T19:31:38;6.17;;;3.10;;
68250;SDS011;55066;51.560;4.642;2023-04-01T19:37:28;7.57;;;3.20;;
68250;SDS011;55066;51.560;4.642;2023-04-01T19:43:12;8.38;;;3.78;;
68250;SDS011;55066;51.560;4.642;2023-04-01T19:45:46;7.07;;;3.20;;
68250;SDS011;55066;51.560;4.642;2023-04-01T19:51:05;6.30;;;2.83;;
68250;SDS011;55066;51.560;4.642;2023-04-01T19:56:44;6.07;;;2.95;;
68250;SDS011;55066;51.560;4.642;2023-04-01T19:59:56;4.00;;;2.17;;
68250;SDS011;55066;51.560;4.642;2023-04-01T20:08:44;9.25;;;3.80;;
68250;SDS011;55066;51.560;4.642;2023-04-01T20:13:46;7.00;;;3.57;;
68250;SDS011;55066;51.560;4.642;2023-04-01T20:16:19;7.90;;;4.00;;
68250;SDS011;55066;51.560;4.642;2023-04-01T20:18:59;9.00;;;3.72;;
68250;SDS011;55066;51.560;4.642;2023-04-01T20:21:36;8.57;;;4.30;;
68250;SDS011;55066;51.560;4.642;2023-04-01T20:24:26;10.45;;;4.60;;
68250;SDS011;55066;51.560;4.642;2023-04-01T20:27:03;9.27;;;4.93;;
68250;SDS011;55066;51.560;4.642;2023-04-01T20:43:35;8.15;;;3.95;;
68250;SDS011;55066;51.560;4.642;2023-04-01T20:47:00;8.15;;;3.78;;
68250;SDS011;55066;51.560;4.642;2023-04-01T21:06:29;10.83;;;5.10;;
68250;SDS011;55066;51.560;4.642;2023-04-01T21:20:36;11.93;;;5.80;;
68250;SDS011;55066;51.560;4.642;2023-04-01T21:31:54;13.70;;;6.50;;
68250;SDS011;55066;51.560;4.642;2023-04-01T21:37:44;14.07;;;6.50;;
68250;SDS011;55066;51.560;4.642;2023-04-01T21:51:41;13.65;;;5.53;;
68250;SDS011;55066;51.560;4.642;2023-04-01T21:57:48;11.07;;;4.82;;
68250;SDS011;55066;51.560;4.642;2023-04-01T22:00:32;12.80;;;5.83;;
68250;SDS011;55066;51.560;4.642;2023-04-01T22:09:08;16.15;;;6.38;;
68250;SDS011;55066;51.560;4.642;2023-04-01T22:11:56;15.23;;;7.00;;
68250;SDS011;55066;51.560;4.642;2023-04-01T22:14:33;14.20;;;6.50;;
68250;SDS011;55066;51.560;4.642;2023-04-01T22:17:35;16.38;;;6.40;;
68250;SDS011;55066;51.560;4.642;2023-04-01T22:28:27;11.63;;;5.03;;
68250;SDS011;55066;51.560;4.642;2023-04-01T22:31:01;13.60;;;6.18;;
68250;SDS011;55066;51.560;4.642;2023-04-01T22:33:30;13.98;;;6.57;;
68250;SDS011;55066;51.560;4.642;2023-04-01T22:41:58;15.32;;;6.50;;
68250;SDS011;55066;51.560;4.642;2023-04-01T22:47:16;17.67;;;7.43;;
68250;SDS011;55066;51.560;4.642;2023-04-01T22:50:12;16.92;;;7.20;;
68250;SDS011;55066;51.560;4.642;2023-04-01T22:52:50;17.67;;;7.25;;
68250;SDS011;55066;51.560;4.642;2023-04-01T22:55:42;16.07;;;7.70;;
68250;SDS011;55066;51.560;4.642;2023-04-01T23:01:29;12.98;;;6.20;;
68250;SDS011;55066;51.560;4.642;2023-04-01T23:03:57;16.08;;;6.57;;
68250;SDS011;55066;51.560;4.642;2023-04-01T23:06:33;12.13;;;4.93;;
68250;SDS011;55066;51.560;4.642;2023-04-01T23:11:50;14.50;;;6.15;;
68250;SDS011;55066;51.560;4.642;2023-04-01T23:27:43;11.73;;;4.78;;
68250;SDS011;55066;51.560;4.642;2023-04-01T23:38:41;12.63;;;5.18;;
68250;SDS011;55066;51.560;4.642;2023-04-01T23:41:28;10.80;;;4.50;;
68250;SDS011;55066;51.560;4.642;2023-04-01T23:43:59;17.07;;;5.63;;
68250;SDS011;55066;51.560;4.642;2023-04-01T23:46:31;10.10;;;4.78;;
68250;SDS011;55066;51.560;4.642;2023-04-01T23:49:04;11.93;;;5.43;;
68250;SDS011;55066;51.560;4.642;2023-04-01T23:51:49;15.35;;;6.60;;
68250;SDS011;55066;51.560;4.642;2023-04-01T23:54:33;13.43;;;5.55;;
68250;SDS011;55066;51.560;4.642;2023-04-01T23:57:14;16.43;;;5.00;;
68250;SDS011;55066;51.560;4.642;2023-04-01T23:59:47;11.30;;;4.68;;
